sensor_id;sensor_type;location;lat;lon;timestamp;P1;durP1;ratioP1;P2;durP2;ratioP2
40116;SDS011;25829;50.228;18.936;2023-05-14T00:01:29;11.50;;;8.07;;
40116;SDS011;25829;50.228;18.936;2023-05-14T00:04:32;13.57;;;8.00;;
40116;SDS011;25829;50.228;18.936;2023-05-14T00:07:33;12.70;;;8.17;;
40116;SDS011;25829;50.228;18.936;2023-05-14T00:10:34;10.90;;;8.27;;
40116;SDS011;25829;50.228;18.936;2023-05-14T00:13:37;11.40;;;8.23;;
40116;SDS011;25829;50.228;18.936;2023-05-14T00:16:38;13.93;;;9.67;;
40116;SDS011;25829;50.228;18.936;2023-05-14T00:19:39;12.60;;;9.13;;
40116;SDS011;25829;50.228;18.936;2023-05-14T00:22:41;12.17;;;8.37;;
40116;SDS011;25829;50.228;18.936;2023-05-14T00:25:42;15.37;;;9.20;;
40116;SDS011;25829;50.228;18.936;2023-05-14T00:28:42;10.70;;;7.80;;
40116;SDS011;25829;50.228;18.936;2023-05-14T00:31:43;12.90;;;9.10;;
40116;SDS011;25829;50.228;18.936;2023-05-14T00:34:44;13.13;;;8.97;;
40116;SDS011;25829;50.228;18.936;2023-05-14T00:37:45;15.73;;;8.57;;
40116;SDS011;25829;50.228;18.936;2023-05-14T00:40:46;11.67;;;8.73;;
40116;SDS011;25829;50.228;18.936;2023-05-14T00:43:51;11.20;;;8.10;;
40116;SDS011;25829;50.228;18.936;2023-05-14T00:46:51;14.83;;;9.20;;
40116;SDS011;25829;50.228;18.936;2023-05-14T00:49:53;13.03;;;8.73;;
40116;SDS011;25829;50.228;18.936;2023-05-14T00:52:57;14.10;;;8.90;;
40116;SDS011;25829;50.228;18.936;2023-05-14T00:56:05;15.27;;;8.83;;
40116;SDS011;25829;50.228;18.936;2023-05-14T00:59:07;12.93;;;9.03;;
40116;SDS011;25829;50.228;18.936;2023-05-14T01:02:08;11.30;;;8.33;;
40116;SDS011;25829;50.228;18.936;2023-05-14T01:05:11;14.30;;;8.80;;
40116;SDS011;25829;50.228;18.936;2023-05-14T01:08:17;14.63;;;8.23;;
40116;SDS011;25829;50.228;18.936;2023-05-14T01:14:53;14.53;;;8.60;;
40116;SDS011;25829;50.228;18.936;2023-05-14T01:18:09;14.10;;;8.77;;
40116;SDS011;25829;50.228;18.936;2023-05-14T01:21:26;13.20;;;8.23;;
40116;SDS011;25829;50.228;18.936;2023-05-14T01:24:35;16.00;;;10.13;;
40116;SDS011;25829;50.228;18.936;2023-05-14T01:27:53;13.63;;;9.50;;
40116;SDS011;25829;50.228;18.936;2023-05-14T01:31:03;12.57;;;8.63;;
40116;SDS011;25829;50.228;18.936;2023-05-14T01:34:10;16.40;;;10.60;;
40116;SDS011;25829;50.228;18.936;2023-05-14T01:37:12;13.60;;;9.50;;
40116;SDS011;25829;50.228;18.936;2023-05-14T01:40:13;12.17;;;8.27;;
40116;SDS011;25829;50.228;18.936;2023-05-14T01:43:15;14.30;;;8.93;;
40116;SDS011;25829;50.228;18.936;2023-05-14T01:46:17;14.87;;;8.57;;
40116;SDS011;25829;50.228;18.936;2023-05-14T01:49:21;15.20;;;9.37;;
40116;SDS011;25829;50.228;18.936;2023-05-14T01:52:22;16.03;;;9.57;;
40116;SDS011;25829;50.228;18.936;2023-05-14T01:55:23;15.43;;;10.10;;
40116;SDS011;25829;50.228;18.936;2023-05-14T01:58:24;12.57;;;9.33;;
40116;SDS011;25829;50.228;18.936;2023-05-14T02:01:25;14.47;;;9.30;;
40116;SDS011;25829;50.228;18.936;2023-05-14T02:04:25;12.63;;;8.57;;
40116;SDS011;25829;50.228;18.936;2023-05-14T02:07:26;15.50;;;8.30;;
40116;SDS011;25829;50.228;18.936;2023-05-14T02:10:27;14.53;;;9.63;;
40116;SDS011;25829;50.228;18.936;2023-05-14T02:13:28;14.20;;;9.77;;
40116;SDS011;25829;50.228;18.936;2023-05-14T02:16:29;13.77;;;9.20;;
40116;SDS011;25829;50.228;18.936;2023-05-14T02:19:30;12.90;;;9.20;;
40116;SDS011;25829;50.228;18.936;2023-05-14T02:22:31;11.17;;;8.30;;
40116;SDS011;25829;50.228;18.936;2023-05-14T02:25:32;12.80;;;8.77;;
40116;SDS011;25829;50.228;18.936;2023-05-14T02:28:32;12.50;;;8.00;;
40116;SDS011;25829;50.228;18.936;2023-05-14T02:31:33;14.70;;;8.17;;
40116;SDS011;25829;50.228;18.936;2023-05-14T02:34:34;9.87;;;7.90;;
40116;SDS011;25829;50.228;18.936;2023-05-14T02:37:35;9.90;;;8.00;;
40116;SDS011;25829;50.228;18.936;2023-05-14T02:40:36;14.90;;;8.43;;
40116;SDS011;25829;50.228;18.936;2023-05-14T02:43:37;12.37;;;7.83;;
40116;SDS011;25829;50.228;18.936;2023-05-14T02:46:37;14.30;;;8.73;;
40116;SDS011;25829;50.228;18.936;2023-05-14T02:49:45;13.33;;;9.13;;
40116;SDS011;25829;50.228;18.936;2023-05-14T02:52:46;15.93;;;8.60;;
40116;SDS011;25829;50.228;18.936;2023-05-14T02:55:49;11.27;;;8.57;;
40116;SDS011;25829;50.228;18.936;2023-05-14T02:58:50;12.90;;;8.83;;
40116;SDS011;25829;50.228;18.936;2023-05-14T03:01:50;13.40;;;8.93;;
40116;SDS011;25829;50.228;18.936;2023-05-14T03:04:51;12.80;;;8.70;;
40116;SDS011;25829;50.228;18.936;2023-05-14T03:07:52;11.83;;;8.47;;
40116;SDS011;25829;50.228;18.936;2023-05-14T03:10:56;14.23;;;8.07;;
40116;SDS011;25829;50.228;18.936;2023-05-14T03:13:57;12.27;;;7.80;;
40116;SDS011;25829;50.228;18.936;2023-05-14T03:16:57;10.00;;;7.47;;
40116;SDS011;25829;50.228;18.936;2023-05-14T03:19:58;11.00;;;8.13;;
40116;SDS011;25829;50.228;18.936;2023-05-14T03:23:00;10.70;;;7.17;;
40116;SDS011;25829;50.228;18.936;2023-05-14T03:26:01;11.03;;;7.50;;
40116;SDS011;25829;50.228;18.936;2023-05-14T03:29:02;12.27;;;7.70;;
40116;SDS011;25829;50.228;18.936;2023-05-14T03:32:03;10.87;;;7.17;;
40116;SDS011;25829;50.228;18.936;2023-05-14T03:35:05;11.77;;;8.03;;
40116;SDS011;25829;50.228;18.936;2023-05-14T03:38:07;12.20;;;7.90;;
40116;SDS011;25829;50.228;18.936;2023-05-14T03:41:08;11.20;;;8.13;;
40116;SDS011;25829;50.228;18.936;2023-05-14T03:44:09;10.57;;;7.07;;
40116;SDS011;25829;50.228;18.936;2023-05-14T03:47:10;10.10;;;6.90;;
40116;SDS011;25829;50.228;18.936;2023-05-14T03:50:11;9.37;;;6.87;;
40116;SDS011;25829;50.228;18.936;2023-05-14T03:53:12;11.27;;;6.60;;
40116;SDS011;25829;50.228;18.936;2023-05-14T03:56:13;10.40;;;6.87;;
40116;SDS011;25829;50.228;18.936;2023-05-14T03:59:16;9.37;;;6.73;;
40116;SDS011;25829;50.228;18.936;2023-05-14T04:02:16;9.73;;;7.50;;
40116;SDS011;25829;50.228;18.936;2023-05-14T04:05:17;9.73;;;6.87;;
40116;SDS011;25829;50.228;18.936;2023-05-14T04:08:19;10.53;;;7.37;;
40116;SDS011;25829;50.228;18.936;2023-05-14T04:11:20;8.80;;;6.87;;
40116;SDS011;25829;50.228;18.936;2023-05-14T04:14:22;10.77;;;7.27;;
40116;SDS011;25829;50.228;18.936;2023-05-14T04:17:23;12.50;;;7.20;;
40116;SDS011;25829;50.228;18.936;2023-05-14T04:20:25;9.03;;;6.83;;
40116;SDS011;25829;50.228;18.936;2023-05-14T04:23:25;10.40;;;6.60;;
40116;SDS011;25829;50.228;18.936;2023-05-14T04:26:26;12.17;;;7.30;;
40116;SDS011;25829;50.228;18.936;2023-05-14T04:29:27;8.00;;;6.30;;
40116;SDS011;25829;50.228;18.936;2023-05-14T04:32:28;8.37;;;6.77;;
40116;SDS011;25829;50.228;18.936;2023-05-14T04:35:29;9.77;;;6.27;;
40116;SDS011;25829;50.228;18.936;2023-05-14T04:38:30;9.77;;;6.37;;
40116;SDS011;25829;50.228;18.936;2023-05-14T04:41:31;9.97;;;6.40;;
40116;SDS011;25829;50.228;18.936;2023-05-14T04:44:34;8.37;;;6.43;;
40116;SDS011;25829;50.228;18.936;2023-05-14T04:47:36;8.73;;;6.23;;
40116;SDS011;25829;50.228;18.936;2023-05-14T04:50:37;8.37;;;6.60;;
40116;SDS011;25829;50.228;18.936;2023-05-14T04:53:40;10.27;;;6.93;;
40116;SDS011;25829;50.228;18.936;2023-05-14T04:56:42;9.03;;;6.20;;
40116;SDS011;25829;50.228;18.936;2023-05-14T04:59:43;7.33;;;6.33;;
40116;SDS011;25829;50.228;18.936;2023-05-14T05:02:44;8.03;;;5.60;;
40116;SDS011;25829;50.228;18.936;2023-05-14T05:05:45;8.63;;;4.90;;
40116;SDS011;25829;50.228;18.936;2023-05-14T05:08:45;7.40;;;5.10;;
40116;SDS011;25829;50.228;18.936;2023-05-14T05:11:46;6.60;;;4.90;;
40116;SDS011;25829;50.228;18.936;2023-05-14T05:14:55;5.80;;;4.37;;
40116;SDS011;25829;50.228;18.936;2023-05-14T05:17:59;8.10;;;3.73;;
40116;SDS011;25829;50.228;18.936;2023-05-14T05:21:00;4.60;;;3.83;;
40116;SDS011;25829;50.228;18.936;2023-05-14T05:24:00;4.90;;;4.37;;
40116;SDS011;25829;50.228;18.936;2023-05-14T05:27:01;4.50;;;4.00;;
40116;SDS011;25829;50.228;18.936;2023-05-14T05:30:05;5.10;;;4.03;;
40116;SDS011;25829;50.228;18.936;2023-05-14T05:33:10;4.00;;;3.55;;
40116;SDS011;25829;50.228;18.936;2023-05-14T05:36:11;7.10;;;3.57;;
40116;SDS011;25829;50.228;18.936;2023-05-14T05:39:15;4.13;;;3.73;;
40116;SDS011;25829;50.228;18.936;2023-05-14T05:42:19;4.28;;;3.80;;
40116;SDS011;25829;50.228;18.936;2023-05-14T05:45:31;4.30;;;3.85;;
40116;SDS011;25829;50.228;18.936;2023-05-14T05:48:32;4.35;;;3.88;;
40116;SDS011;25829;50.228;18.936;2023-05-14T05:51:33;5.03;;;3.65;;
40116;SDS011;25829;50.228;18.936;2023-05-14T05:54:34;4.13;;;3.55;;
40116;SDS011;25829;50.228;18.936;2023-05-14T05:57:40;6.40;;;3.88;;
40116;SDS011;25829;50.228;18.936;2023-05-14T06:00:44;4.45;;;3.75;;
40116;SDS011;25829;50.228;18.936;2023-05-14T06:03:51;4.20;;;3.80;;
40116;SDS011;25829;50.228;18.936;2023-05-14T06:06:58;5.30;;;3.97;;
40116;SDS011;25829;50.228;18.936;2023-05-14T06:10:02;5.57;;;4.22;;
40116;SDS011;25829;50.228;18.936;2023-05-14T06:13:04;5.25;;;4.22;;
40116;SDS011;25829;50.228;18.936;2023-05-14T06:16:06;5.07;;;4.25;;
40116;SDS011;25829;50.228;18.936;2023-05-14T06:19:09;5.78;;;4.65;;
40116;SDS011;25829;50.228;18.936;2023-05-14T06:22:52;5.95;;;4.13;;
40116;SDS011;25829;50.228;18.936;2023-05-14T06:26:01;5.13;;;4.20;;
40116;SDS011;25829;50.228;18.936;2023-05-14T06:29:05;7.85;;;3.70;;
40116;SDS011;25829;50.228;18.936;2023-05-14T06:32:06;9.05;;;4.55;;
40116;SDS011;25829;50.228;18.936;2023-05-14T06:35:07;4.15;;;3.75;;
40116;SDS011;25829;50.228;18.936;2023-05-14T06:38:08;6.63;;;4.28;;
40116;SDS011;25829;50.228;18.936;2023-05-14T06:41:09;5.97;;;4.00;;
40116;SDS011;25829;50.228;18.936;2023-05-14T06:44:10;5.32;;;3.92;;
40116;SDS011;25829;50.228;18.936;2023-05-14T06:47:11;4.72;;;3.63;;
40116;SDS011;25829;50.228;18.936;2023-05-14T06:50:12;5.57;;;3.60;;
40116;SDS011;25829;50.228;18.936;2023-05-14T06:53:12;4.45;;;3.78;;
40116;SDS011;25829;50.228;18.936;2023-05-14T06:56:14;6.97;;;3.92;;
40116;SDS011;25829;50.228;18.936;2023-05-14T06:59:15;3.97;;;3.58;;
40116;SDS011;25829;50.228;18.936;2023-05-14T07:02:15;5.63;;;3.60;;
40116;SDS011;25829;50.228;18.936;2023-05-14T07:05:16;4.90;;;3.60;;
40116;SDS011;25829;50.228;18.936;2023-05-14T07:08:17;4.18;;;3.35;;
40116;SDS011;25829;50.228;18.936;2023-05-14T07:11:18;4.32;;;3.42;;
40116;SDS011;25829;50.228;18.936;2023-05-14T07:14:19;4.10;;;3.38;;
40116;SDS011;25829;50.228;18.936;2023-05-14T07:17:19;4.35;;;3.95;;
40116;SDS011;25829;50.228;18.936;2023-05-14T07:20:20;3.33;;;3.03;;
40116;SDS011;25829;50.228;18.936;2023-05-14T07:23:23;4.35;;;2.95;;
40116;SDS011;25829;50.228;18.936;2023-05-14T07:26:24;4.05;;;3.20;;
40116;SDS011;25829;50.228;18.936;2023-05-14T07:29:25;4.32;;;3.17;;
40116;SDS011;25829;50.228;18.936;2023-05-14T07:32:26;3.97;;;3.05;;
40116;SDS011;25829;50.228;18.936;2023-05-14T07:35:27;4.95;;;3.72;;
40116;SDS011;25829;50.228;18.936;2023-05-14T07:38:28;5.03;;;3.83;;
40116;SDS011;25829;50.228;18.936;2023-05-14T07:41:32;5.78;;;4.00;;
40116;SDS011;25829;50.228;18.936;2023-05-14T07:44:32;4.68;;;4.22;;
40116;SDS011;25829;50.228;18.936;2023-05-14T07:47:33;4.00;;;3.60;;
40116;SDS011;25829;50.228;18.936;2023-05-14T07:50:35;5.65;;;3.97;;
40116;SDS011;25829;50.228;18.936;2023-05-14T07:53:36;5.10;;;3.55;;
40116;SDS011;25829;50.228;18.936;2023-05-14T07:56:37;4.25;;;3.70;;
40116;SDS011;25829;50.228;18.936;2023-05-14T07:59:38;4.60;;;3.58;;
40116;SDS011;25829;50.228;18.936;2023-05-14T08:02:43;4.13;;;3.53;;
40116;SDS011;25829;50.228;18.936;2023-05-14T08:05:43;3.92;;;3.50;;
40116;SDS011;25829;50.228;18.936;2023-05-14T08:08:45;5.20;;;3.63;;
40116;SDS011;25829;50.228;18.936;2023-05-14T08:11:46;3.65;;;3.35;;
40116;SDS011;25829;50.228;18.936;2023-05-14T08:14:47;3.63;;;2.90;;
40116;SDS011;25829;50.228;18.936;2023-05-14T08:17:48;4.00;;;3.22;;
40116;SDS011;25829;50.228;18.936;2023-05-14T08:20:51;3.33;;;3.03;;
40116;SDS011;25829;50.228;18.936;2023-05-14T08:23:55;3.40;;;3.10;;
40116;SDS011;25829;50.228;18.936;2023-05-14T08:26:56;3.85;;;3.17;;
40116;SDS011;25829;50.228;18.936;2023-05-14T08:29:56;4.80;;;2.90;;
40116;SDS011;25829;50.228;18.936;2023-05-14T08:33:07;3.75;;;3.45;;
40116;SDS011;25829;50.228;18.936;2023-05-14T08:36:09;3.67;;;3.10;;
40116;SDS011;25829;50.228;18.936;2023-05-14T08:39:13;3.70;;;3.40;;
40116;SDS011;25829;50.228;18.936;2023-05-14T08:42:14;3.90;;;3.50;;
40116;SDS011;25829;50.228;18.936;2023-05-14T08:45:18;4.30;;;3.50;;
40116;SDS011;25829;50.228;18.936;2023-05-14T08:48:20;7.30;;;3.67;;
40116;SDS011;25829;50.228;18.936;2023-05-14T08:51:23;3.65;;;3.35;;
40116;SDS011;25829;50.228;18.936;2023-05-14T08:54:25;6.25;;;4.07;;
40116;SDS011;25829;50.228;18.936;2023-05-14T08:57:28;5.93;;;4.35;;
40116;SDS011;25829;50.228;18.936;2023-05-14T09:00:31;4.05;;;3.75;;
40116;SDS011;25829;50.228;18.936;2023-05-14T09:03:32;5.88;;;3.83;;
40116;SDS011;25829;50.228;18.936;2023-05-14T09:15:09;4.88;;;3.53;;
40116;SDS011;25829;50.228;18.936;2023-05-14T09:21:44;3.60;;;3.30;;
40116;SDS011;25829;50.228;18.936;2023-05-14T09:24:49;4.07;;;3.60;;
40116;SDS011;25829;50.228;18.936;2023-05-14T09:28:04;3.83;;;3.53;;
40116;SDS011;25829;50.228;18.936;2023-05-14T09:31:08;4.25;;;3.30;;
40116;SDS011;25829;50.228;18.936;2023-05-14T09:34:09;3.67;;;3.38;;
40116;SDS011;25829;50.228;18.936;2023-05-14T09:37:13;3.72;;;3.30;;
40116;SDS011;25829;50.228;18.936;2023-05-14T09:40:14;4.40;;;3.30;;
40116;SDS011;25829;50.228;18.936;2023-05-14T09:43:15;5.28;;;3.53;;
40116;SDS011;25829;50.228;18.936;2023-05-14T09:46:16;5.10;;;3.28;;
40116;SDS011;25829;50.228;18.936;2023-05-14T09:49:21;4.22;;;3.83;;
40116;SDS011;25829;50.228;18.936;2023-05-14T09:52:25;4.07;;;3.20;;
40116;SDS011;25829;50.228;18.936;2023-05-14T09:55:26;3.65;;;3.28;;
40116;SDS011;25829;50.228;18.936;2023-05-14T09:58:28;4.47;;;3.05;;
40116;SDS011;25829;50.228;18.936;2023-05-14T10:01:29;3.47;;;3.10;;
40116;SDS011;25829;50.228;18.936;2023-05-14T10:04:31;2.97;;;2.67;;
40116;SDS011;25829;50.228;18.936;2023-05-14T10:07:40;3.35;;;3.05;;
40116;SDS011;25829;50.228;18.936;2023-05-14T10:10:49;3.33;;;3.03;;
40116;SDS011;25829;50.228;18.936;2023-05-14T10:14:06;4.53;;;3.38;;
40116;SDS011;25829;50.228;18.936;2023-05-14T10:17:31;3.72;;;3.15;;
40116;SDS011;25829;50.228;18.936;2023-05-14T10:20:34;3.95;;;3.30;;
40116;SDS011;25829;50.228;18.936;2023-05-14T10:23:37;3.60;;;3.20;;
40116;SDS011;25829;50.228;18.936;2023-05-14T10:26:43;3.75;;;3.10;;
40116;SDS011;25829;50.228;18.936;2023-05-14T10:29:47;3.90;;;3.20;;
40116;SDS011;25829;50.228;18.936;2023-05-14T10:33:12;3.10;;;2.88;;
40116;SDS011;25829;50.228;18.936;2023-05-14T10:36:17;4.00;;;3.00;;
40116;SDS011;25829;50.228;18.936;2023-05-14T10:39:22;3.60;;;2.90;;
40116;SDS011;25829;50.228;18.936;2023-05-14T10:42:32;3.90;;;3.10;;
40116;SDS011;25829;50.228;18.936;2023-05-14T10:45:40;3.53;;;2.58;;
40116;SDS011;25829;50.228;18.936;2023-05-14T10:48:46;3.00;;;2.47;;
40116;SDS011;25829;50.228;18.936;2023-05-14T10:52:06;3.60;;;2.70;;
40116;SDS011;25829;50.228;18.936;2023-05-14T10:55:11;3.53;;;3.20;;
40116;SDS011;25829;50.228;18.936;2023-05-14T10:58:22;2.90;;;2.70;;
40116;SDS011;25829;50.228;18.936;2023-05-14T11:01:26;3.30;;;2.55;;
40116;SDS011;25829;50.228;18.936;2023-05-14T11:04:34;3.65;;;2.58;;
40116;SDS011;25829;50.228;18.936;2023-05-14T11:07:41;3.13;;;2.83;;
40116;SDS011;25829;50.228;18.936;2023-05-14T11:10:42;3.58;;;2.95;;
40116;SDS011;25829;50.228;18.936;2023-05-14T11:28:13;6.05;;;2.70;;
40116;SDS011;25829;50.228;18.936;2023-05-14T11:45:56;5.53;;;2.83;;
40116;SDS011;25829;50.228;18.936;2023-05-14T11:48:57;3.67;;;3.00;;
40116;SDS011;25829;50.228;18.936;2023-05-14T11:51:58;4.95;;;3.10;;
40116;SDS011;25829;50.228;18.936;2023-05-14T11:55:00;3.58;;;2.97;;
40116;SDS011;25829;50.228;18.936;2023-05-14T11:58:04;6.57;;;4.03;;
40116;SDS011;25829;50.228;18.936;2023-05-14T12:01:05;3.20;;;2.90;;
40116;SDS011;25829;50.228;18.936;2023-05-14T12:04:12;3.63;;;2.90;;
40116;SDS011;25829;50.228;18.936;2023-05-14T12:07:22;2.88;;;2.60;;
40116;SDS011;25829;50.228;18.936;2023-05-14T12:10:23;3.28;;;2.42;;
40116;SDS011;25829;50.228;18.936;2023-05-14T12:13:25;3.65;;;2.85;;
40116;SDS011;25829;50.228;18.936;2023-05-14T12:16:30;3.50;;;2.50;;
40116;SDS011;25829;50.228;18.936;2023-05-14T12:19:42;3.10;;;2.80;;
40116;SDS011;25829;50.228;18.936;2023-05-14T12:22:55;5.03;;;2.95;;
40116;SDS011;25829;50.228;18.936;2023-05-14T12:26:03;3.92;;;2.65;;
40116;SDS011;25829;50.228;18.936;2023-05-14T12:29:05;3.95;;;2.10;;
40116;SDS011;25829;50.228;18.936;2023-05-14T12:32:06;2.03;;;1.90;;
40116;SDS011;25829;50.228;18.936;2023-05-14T12:35:11;2.80;;;2.50;;
40116;SDS011;25829;50.228;18.936;2023-05-14T12:38:12;3.40;;;2.30;;
40116;SDS011;25829;50.228;18.936;2023-05-14T12:41:13;2.88;;;2.53;;
40116;SDS011;25829;50.228;18.936;2023-05-14T12:44:16;4.20;;;2.70;;
40116;SDS011;25829;50.228;18.936;2023-05-14T12:51:39;2.20;;;1.52;;
40116;SDS011;25829;50.228;18.936;2023-05-14T13:14:41;2.33;;;2.13;;
40116;SDS011;25829;50.228;18.936;2023-05-14T13:17:42;1.80;;;1.70;;
40116;SDS011;25829;50.228;18.936;2023-05-14T13:20:46;2.72;;;2.03;;
40116;SDS011;25829;50.228;18.936;2023-05-14T13:23:47;2.50;;;1.55;;
40116;SDS011;25829;50.228;18.936;2023-05-14T13:26:48;1.95;;;1.75;;
40116;SDS011;25829;50.228;18.936;2023-05-14T13:29:49;5.45;;;1.58;;
40116;SDS011;25829;50.228;18.936;2023-05-14T13:32:51;2.10;;;1.85;;
40116;SDS011;25829;50.228;18.936;2023-05-14T13:35:58;2.05;;;1.88;;
40116;SDS011;25829;50.228;18.936;2023-05-14T13:38:58;2.15;;;1.90;;
40116;SDS011;25829;50.228;18.936;2023-05-14T13:41:59;1.77;;;1.67;;
40116;SDS011;25829;50.228;18.936;2023-05-14T13:45:00;1.80;;;1.67;;
40116;SDS011;25829;50.228;18.936;2023-05-14T13:48:01;4.78;;;1.70;;
40116;SDS011;25829;50.228;18.936;2023-05-14T13:51:05;5.15;;;2.25;;
40116;SDS011;25829;50.228;18.936;2023-05-14T13:57:57;2.00;;;1.80;;
40116;SDS011;25829;50.228;18.936;2023-05-14T14:00:58;2.15;;;1.95;;
40116;SDS011;25829;50.228;18.936;2023-05-14T14:03:59;3.65;;;1.90;;
40116;SDS011;25829;50.228;18.936;2023-05-14T14:07:03;2.13;;;1.92;;
40116;SDS011;25829;50.228;18.936;2023-05-14T14:10:04;5.43;;;2.17;;
40116;SDS011;25829;50.228;18.936;2023-05-14T14:13:11;2.97;;;2.03;;
40116;SDS011;25829;50.228;18.936;2023-05-14T14:16:15;2.08;;;1.90;;
40116;SDS011;25829;50.228;18.936;2023-05-14T14:19:17;2.33;;;1.95;;
40116;SDS011;25829;50.228;18.936;2023-05-14T14:22:19;2.28;;;1.80;;
40116;SDS011;25829;50.228;18.936;2023-05-14T14:25:20;5.93;;;1.92;;
40116;SDS011;25829;50.228;18.936;2023-05-14T14:28:21;2.53;;;2.10;;
40116;SDS011;25829;50.228;18.936;2023-05-14T14:31:22;2.83;;;2.38;;
40116;SDS011;25829;50.228;18.936;2023-05-14T14:34:23;2.90;;;2.00;;
40116;SDS011;25829;50.228;18.936;2023-05-14T14:40:53;2.53;;;2.00;;
40116;SDS011;25829;50.228;18.936;2023-05-14T14:43:53;2.65;;;1.80;;
40116;SDS011;25829;50.228;18.936;2023-05-14T14:46:57;2.00;;;1.88;;
40116;SDS011;25829;50.228;18.936;2023-05-14T14:49:57;2.45;;;1.90;;
40116;SDS011;25829;50.228;18.936;2023-05-14T14:52:58;3.25;;;2.03;;
40116;SDS011;25829;50.228;18.936;2023-05-14T14:55:59;1.73;;;1.63;;
40116;SDS011;25829;50.228;18.936;2023-05-14T14:59:04;2.65;;;2.28;;
40116;SDS011;25829;50.228;18.936;2023-05-14T15:02:04;2.55;;;1.70;;
40116;SDS011;25829;50.228;18.936;2023-05-14T15:08:29;3.03;;;1.85;;
40116;SDS011;25829;50.228;18.936;2023-05-14T15:34:42;2.00;;;1.80;;
40116;SDS011;25829;50.228;18.936;2023-05-14T15:37:43;2.92;;;1.90;;
40116;SDS011;25829;50.228;18.936;2023-05-14T15:40:47;3.17;;;2.00;;
40116;SDS011;25829;50.228;18.936;2023-05-14T15:43:53;1.80;;;1.67;;
40116;SDS011;25829;50.228;18.936;2023-05-14T15:46:55;2.10;;;1.80;;
40116;SDS011;25829;50.228;18.936;2023-05-14T15:49:57;3.60;;;2.15;;
40116;SDS011;25829;50.228;18.936;2023-05-14T15:52:58;3.15;;;1.90;;
40116;SDS011;25829;50.228;18.936;2023-05-14T15:56:02;4.45;;;2.10;;
40116;SDS011;25829;50.228;18.936;2023-05-14T16:02:28;3.42;;;2.20;;
40116;SDS011;25829;50.228;18.936;2023-05-14T16:05:31;2.17;;;1.98;;
40116;SDS011;25829;50.228;18.936;2023-05-14T16:09:31;2.50;;;2.13;;
40116;SDS011;25829;50.228;18.936;2023-05-14T16:12:37;5.80;;;3.70;;
40116;SDS011;25829;50.228;18.936;2023-05-14T16:15:38;4.07;;;2.65;;
40116;SDS011;25829;50.228;18.936;2023-05-14T16:18:59;4.47;;;2.88;;
40116;SDS011;25829;50.228;18.936;2023-05-14T16:22:00;5.88;;;3.85;;
40116;SDS011;25829;50.228;18.936;2023-05-14T16:25:04;8.68;;;3.60;;
40116;SDS011;25829;50.228;18.936;2023-05-14T16:28:05;4.45;;;3.53;;
40116;SDS011;25829;50.228;18.936;2023-05-14T16:46:59;4.15;;;3.30;;
40116;SDS011;25829;50.228;18.936;2023-05-14T16:50:00;4.85;;;2.42;;
40116;SDS011;25829;50.228;18.936;2023-05-14T16:53:01;3.13;;;2.80;;
40116;SDS011;25829;50.228;18.936;2023-05-14T16:56:02;4.78;;;2.60;;
40116;SDS011;25829;50.228;18.936;2023-05-14T16:59:15;6.28;;;2.40;;
40116;SDS011;25829;50.228;18.936;2023-05-14T17:02:20;3.65;;;2.60;;
40116;SDS011;25829;50.228;18.936;2023-05-14T17:05:21;5.78;;;2.67;;
40116;SDS011;25829;50.228;18.936;2023-05-14T17:08:22;3.15;;;2.53;;
40116;SDS011;25829;50.228;18.936;2023-05-14T17:11:23;3.55;;;2.45;;
40116;SDS011;25829;50.228;18.936;2023-05-14T17:14:24;4.13;;;2.55;;
40116;SDS011;25829;50.228;18.936;2023-05-14T17:17:54;6.85;;;2.92;;
40116;SDS011;25829;50.228;18.936;2023-05-14T17:20:58;2.95;;;2.65;;
40116;SDS011;25829;50.228;18.936;2023-05-14T17:23:59;5.03;;;2.70;;
40116;SDS011;25829;50.228;18.936;2023-05-14T17:27:00;2.70;;;2.50;;
40116;SDS011;25829;50.228;18.936;2023-05-14T17:30:01;4.32;;;2.58;;
40116;SDS011;25829;50.228;18.936;2023-05-14T17:33:18;3.45;;;2.10;;
40116;SDS011;25829;50.228;18.936;2023-05-14T17:36:27;2.72;;;2.42;;
40116;SDS011;25829;50.228;18.936;2023-05-14T17:39:28;2.90;;;2.40;;
40116;SDS011;25829;50.228;18.936;2023-05-14T17:42:32;4.63;;;2.47;;
40116;SDS011;25829;50.228;18.936;2023-05-14T17:45:33;2.72;;;2.42;;
40116;SDS011;25829;50.228;18.936;2023-05-14T17:48:34;3.08;;;2.45;;
40116;SDS011;25829;50.228;18.936;2023-05-14T17:51:35;2.33;;;2.10;;
40116;SDS011;25829;50.228;18.936;2023-05-14T17:54:36;3.08;;;1.60;;
40116;SDS011;25829;50.228;18.936;2023-05-14T17:57:37;2.33;;;2.10;;
40116;SDS011;25829;50.228;18.936;2023-05-14T18:00:43;3.97;;;2.78;;
40116;SDS011;25829;50.228;18.936;2023-05-14T18:03:44;4.18;;;2.40;;
40116;SDS011;25829;50.228;18.936;2023-05-14T18:06:45;4.63;;;2.80;;
40116;SDS011;25829;50.228;18.936;2023-05-14T18:09:47;3.67;;;2.95;;
40116;SDS011;25829;50.228;18.936;2023-05-14T18:12:48;4.05;;;2.85;;
40116;SDS011;25829;50.228;18.936;2023-05-14T18:15:52;3.90;;;3.55;;
40116;SDS011;25829;50.228;18.936;2023-05-14T18:18:53;5.00;;;3.20;;
40116;SDS011;25829;50.228;18.936;2023-05-14T18:26:16;4.53;;;3.83;;
40116;SDS011;25829;50.228;18.936;2023-05-14T18:32:42;4.20;;;3.45;;
40116;SDS011;25829;50.228;18.936;2023-05-14T18:35:43;4.80;;;3.60;;
40116;SDS011;25829;50.228;18.936;2023-05-14T18:42:17;4.88;;;3.33;;
40116;SDS011;25829;50.228;18.936;2023-05-14T18:45:21;3.65;;;3.05;;
40116;SDS011;25829;50.228;18.936;2023-05-14T18:48:23;5.03;;;3.40;;
40116;SDS011;25829;50.228;18.936;2023-05-14T18:55:08;3.92;;;3.53;;
40116;SDS011;25829;50.228;18.936;2023-05-14T18:58:09;4.15;;;3.20;;
40116;SDS011;25829;50.228;18.936;2023-05-14T19:01:11;4.53;;;3.05;;
40116;SDS011;25829;50.228;18.936;2023-05-14T19:04:12;3.28;;;2.97;;
40116;SDS011;25829;50.228;18.936;2023-05-14T19:07:12;4.55;;;3.55;;
40116;SDS011;25829;50.228;18.936;2023-05-14T19:10:14;3.50;;;3.20;;
40116;SDS011;25829;50.228;18.936;2023-05-14T19:13:18;6.22;;;3.60;;
40116;SDS011;25829;50.228;18.936;2023-05-14T19:16:22;3.90;;;3.45;;
40116;SDS011;25829;50.228;18.936;2023-05-14T19:29:34;4.28;;;3.85;;
40116;SDS011;25829;50.228;18.936;2023-05-14T19:32:39;4.93;;;3.85;;
40116;SDS011;25829;50.228;18.936;2023-05-14T19:35:40;6.93;;;4.38;;
40116;SDS011;25829;50.228;18.936;2023-05-14T19:38:40;6.63;;;4.50;;
40116;SDS011;25829;50.228;18.936;2023-05-14T19:41:41;6.93;;;4.60;;
40116;SDS011;25829;50.228;18.936;2023-05-14T19:44:42;7.85;;;5.25;;
40116;SDS011;25829;50.228;18.936;2023-05-14T19:47:46;6.10;;;4.88;;
40116;SDS011;25829;50.228;18.936;2023-05-14T19:50:50;12.18;;;6.30;;
40116;SDS011;25829;50.228;18.936;2023-05-14T19:53:51;8.25;;;4.20;;
40116;SDS011;25829;50.228;18.936;2023-05-14T19:56:52;6.03;;;4.18;;
40116;SDS011;25829;50.228;18.936;2023-05-14T19:59:52;6.10;;;4.32;;
40116;SDS011;25829;50.228;18.936;2023-05-14T20:02:53;5.03;;;4.45;;
40116;SDS011;25829;50.228;18.936;2023-05-14T20:05:55;6.15;;;4.47;;
40116;SDS011;25829;50.228;18.936;2023-05-14T20:08:57;5.55;;;4.47;;
40116;SDS011;25829;50.228;18.936;2023-05-14T20:11:58;4.85;;;3.83;;
40116;SDS011;25829;50.228;18.936;2023-05-14T20:14:58;4.85;;;3.92;;
40116;SDS011;25829;50.228;18.936;2023-05-14T20:17:59;7.40;;;4.35;;
40116;SDS011;25829;50.228;18.936;2023-05-14T20:21:09;5.30;;;3.92;;
40116;SDS011;25829;50.228;18.936;2023-05-14T20:24:12;4.38;;;3.97;;
40116;SDS011;25829;50.228;18.936;2023-05-14T20:27:15;6.88;;;4.47;;
40116;SDS011;25829;50.228;18.936;2023-05-14T20:30:16;10.60;;;5.20;;